createdAt,value
2018-08-22T00:01:43.111Z,6.97
2018-08-22T00:04:22.928Z,6.50
2018-08-22T00:06:54.777Z,7.33
2018-08-22T00:09:24.368Z,6.53
2018-08-22T00:11:55.930Z,6.40
2018-08-22T00:14:25.504Z,6.90
2018-08-22T00:17:01.736Z,7.07
2018-08-22T00:19:37.556Z,7.43
2018-08-22T00:22:12.647Z,7.70
2018-08-22T00:24:43.672Z,7.30
2018-08-22T00:27:22.887Z,6.23
2018-08-22T00:29:57.480Z,7.50
2018-08-22T00:32:37.879Z,6.97
2018-08-22T00:35:09.499Z,6.90
2018-08-22T00:37:42.179Z,6.77
2018-08-22T00:40:17.099Z,6.93
2018-08-22T00:42:52.247Z,6.60
2018-08-22T00:45:22.175Z,6.93
2018-08-22T00:47:53.991Z,6.43
2018-08-22T00:50:23.727Z,6.80
2018-08-22T00:52:58.439Z,6.53
2018-08-22T00:55:33.372Z,7.20
2018-08-22T00:58:03.188Z,6.73
2018-08-22T01:00:32.847Z,7.40
2018-08-22T01:03:03.623Z,6.50
2018-08-22T01:05:33.445Z,6.27
2018-08-22T01:08:08.364Z,7.70
2018-08-22T01:10:38.160Z,6.97
2018-08-22T01:13:18.763Z,6.47
2018-08-22T01:15:52.204Z,6.97
2018-08-22T01:18:23.766Z,6.27
2018-08-22T01:21:00.472Z,6.73
2018-08-22T01:23:30.020Z,6.47
2018-08-22T01:26:00.804Z,6.50
2018-08-22T01:28:42.296Z,6.60
2018-08-22T01:31:13.288Z,7.50
2018-08-22T01:33:43.127Z,6.37
2018-08-22T01:36:23.442Z,7.17
2018-08-22T01:38:56.888Z,6.37
2018-08-22T01:41:42.767Z,6.60
2018-08-22T01:44:14.555Z,6.30
2018-08-22T01:46:54.832Z,6.17
2018-08-22T01:52:20.539Z,6.50
2018-08-22T01:54:50.416Z,6.00
2018-08-22T01:57:23.504Z,6.07
2018-08-22T01:59:53.129Z,6.80
2018-08-22T02:02:23.908Z,5.83
2018-08-22T02:04:57.060Z,7.00
2018-08-22T02:07:26.868Z,6.93
2018-08-22T02:09:56.468Z,7.63
2018-08-22T02:12:27.059Z,6.90
2018-08-22T02:14:56.827Z,7.57
2018-08-22T02:17:30.424Z,6.60
2018-08-22T02:20:03.839Z,6.73
2018-08-22T02:22:35.643Z,6.80
2018-08-22T02:25:10.168Z,6.70
2018-08-22T02:27:40.954Z,6.87
2018-08-22T02:30:16.096Z,7.03
2018-08-22T02:32:49.180Z,6.93
2018-08-22T02:35:20.915Z,7.00
2018-08-22T02:37:50.763Z,6.87
2018-08-22T02:40:20.427Z,5.93
2018-08-22T02:42:50.987Z,5.93
2018-08-22T02:45:20.880Z,6.80
2018-08-22T02:47:57.920Z,5.90
2018-08-22T02:50:33.232Z,6.00
2018-08-22T02:53:04.074Z,6.43
2018-08-22T02:55:34.091Z,5.93
2018-08-22T02:58:07.815Z,5.70
2018-08-22T03:00:39.622Z,6.50
2018-08-22T03:03:09.464Z,5.23
2018-08-22T03:05:41.094Z,5.93
2018-08-22T03:08:11.876Z,6.17
2018-08-22T03:10:43.699Z,5.30
2018-08-22T03:13:13.603Z,6.20
2018-08-22T03:15:47.955Z,5.33
2018-08-22T03:18:22.903Z,6.23
2018-08-22T03:20:52.783Z,5.80
2018-08-22T03:23:22.707Z,6.30
2018-08-22T03:26:04.191Z,6.40
2018-08-22T03:28:45.991Z,6.47
2018-08-22T03:31:22.867Z,6.83
2018-08-22T03:33:53.679Z,6.97
2018-08-22T03:36:23.263Z,6.57
2018-08-22T03:38:55.012Z,7.20
2018-08-22T03:41:24.623Z,6.50
2018-08-22T03:43:54.140Z,6.80
2018-08-22T03:46:31.400Z,7.13
2018-08-22T03:49:02.187Z,6.93
2018-08-22T03:51:33.007Z,6.70
2018-08-22T03:54:04.663Z,6.97
2018-08-22T03:56:35.376Z,6.30
2018-08-22T03:59:11.292Z,7.00
2018-08-22T04:01:49.067Z,6.77
2018-08-22T04:04:22.536Z,6.70
2018-08-22T04:07:04.368Z,7.17
2018-08-22T04:09:34.231Z,5.77
2018-08-22T04:12:04.049Z,6.10
2018-08-22T04:14:37.960Z,6.43
2018-08-22T04:17:07.783Z,6.70
2018-08-22T04:19:37.596Z,6.80
2018-08-22T04:22:21.663Z,7.03
2018-08-22T04:24:52.443Z,6.53
2018-08-22T04:27:34.090Z,6.30
2018-08-22T04:30:04.060Z,7.33
2018-08-22T04:32:34.847Z,6.13
2018-08-22T04:35:06.672Z,6.57
2018-08-22T04:37:36.460Z,6.80
2018-08-22T04:40:14.363Z,5.30
2018-08-22T04:42:45.088Z,5.93
2018-08-22T04:45:19.719Z,6.73
2018-08-22T04:47:49.223Z,6.93
2018-08-22T04:50:18.965Z,5.90
2018-08-22T04:52:48.740Z,5.70
2018-08-22T04:55:22.667Z,6.10
2018-08-22T04:57:55.440Z,6.20
2018-08-22T05:00:36.359Z,6.80
2018-08-22T05:03:08.187Z,6.40
2018-08-22T05:05:37.971Z,5.53
2018-08-22T05:08:07.784Z,5.97
2018-08-22T05:10:42.335Z,6.80
2018-08-22T05:13:16.600Z,5.43
2018-08-22T05:15:46.371Z,5.87
2018-08-22T05:18:15.969Z,6.70
2018-08-22T05:20:47.727Z,5.63
2018-08-22T05:23:17.516Z,5.57
2018-08-22T05:25:51.020Z,6.03
2018-08-22T05:28:20.635Z,5.20
2018-08-22T05:30:50.115Z,5.60
2018-08-22T05:33:20.867Z,6.10
2018-08-22T05:35:50.663Z,5.70
2018-08-22T05:38:27.867Z,6.30
2018-08-22T05:40:58.582Z,5.20
2018-08-22T05:43:28.412Z,5.90
2018-08-22T05:46:02.307Z,6.17
2018-08-22T05:48:34.180Z,5.73
2018-08-22T05:51:03.977Z,5.37
2018-08-22T05:53:44.603Z,5.50
2018-08-22T05:56:16.179Z,5.63
2018-08-22T05:58:45.947Z,5.40
2018-08-22T06:01:15.827Z,5.97
2018-08-22T06:03:47.487Z,5.57
2018-08-22T06:06:18.152Z,4.83
2018-08-22T06:08:49.983Z,6.17
2018-08-22T06:11:21.608Z,5.13
2018-08-22T06:13:55.056Z,5.87
2018-08-22T06:16:24.828Z,5.50
2018-08-22T06:23:57.076Z,5.00
2018-08-22T06:26:28.943Z,4.50
2018-08-22T06:29:00.619Z,5.40
2018-08-22T06:31:30.390Z,5.10
2018-08-22T06:34:00.152Z,5.10
2018-08-22T06:36:30.372Z,5.77
2018-08-22T06:39:00.224Z,5.90
2018-08-22T06:41:34.016Z,5.57
2018-08-22T06:44:07.103Z,5.30
2018-08-22T06:46:38.952Z,5.17
2018-08-22T06:49:08.759Z,5.13
2018-08-22T06:51:38.549Z,5.30
2018-08-22T06:54:19.064Z,5.30
2018-08-22T06:56:52.764Z,5.47
2018-08-22T06:59:32.875Z,4.43
2018-08-22T07:02:03.632Z,5.27
2018-08-22T07:04:33.424Z,5.03
2018-08-22T07:07:04.084Z,5.20
2018-08-22T07:09:33.764Z,5.60
2018-08-22T07:12:04.540Z,4.87
2018-08-22T07:14:34.124Z,4.97
2018-08-22T07:17:03.868Z,5.30
2018-08-22T07:19:38.779Z,4.77
2018-08-22T07:22:20.196Z,5.27
2018-08-22T07:24:54.663Z,5.57
2018-08-22T07:27:25.532Z,6.10
2018-08-22T07:29:55.343Z,4.90
2018-08-22T07:32:26.164Z,4.10
2018-08-22T07:35:01.994Z,4.30
2018-08-22T07:37:32.781Z,4.93
2018-08-22T07:40:03.356Z,4.90
2018-08-22T07:42:34.168Z,4.97
2018-08-22T07:45:03.940Z,4.60
2018-08-22T07:47:36.892Z,4.63
2018-08-22T07:50:07.575Z,4.93
2018-08-22T07:52:43.452Z,4.20
2018-08-22T07:55:13.008Z,4.40
2018-08-22T07:57:45.880Z,5.23
2018-08-22T08:00:19.760Z,4.77
2018-08-22T08:02:50.536Z,4.30
2018-08-22T08:05:21.471Z,4.43
2018-08-22T08:07:52.203Z,4.33
2018-08-22T08:10:27.063Z,5.10
2018-08-22T08:12:59.947Z,4.50
2018-08-22T08:15:39.292Z,3.90
2018-08-22T08:18:14.443Z,4.03
2018-08-22T08:20:45.095Z,5.17
2018-08-22T08:23:20.619Z,5.10
2018-08-22T08:29:08.904Z,5.07
2018-08-22T08:31:38.567Z,5.20
2018-08-22T08:34:11.808Z,4.97
2018-08-22T08:36:56.012Z,4.97
2018-08-22T08:39:29.160Z,5.07
2018-08-22T08:42:02.164Z,4.97
2018-08-22T08:44:31.951Z,5.03
2018-08-22T08:47:20.277Z,4.80
2018-08-22T08:49:52.043Z,5.53
2018-08-22T08:52:21.631Z,4.77
2018-08-22T08:55:03.287Z,4.67
2018-08-22T08:57:36.627Z,4.73
2018-08-22T09:00:06.435Z,4.57
2018-08-22T09:02:38.011Z,5.00
2018-08-22T09:05:07.699Z,4.90
2018-08-22T09:07:41.491Z,4.67
2018-08-22T09:10:18.927Z,4.90
2018-08-22T09:12:48.683Z,4.30
2018-08-22T09:15:20.450Z,4.23
2018-08-22T09:17:50.242Z,4.40
2018-08-22T09:20:22.003Z,5.23
2018-08-22T09:22:57.443Z,5.97
2018-08-22T09:25:28.203Z,4.47
2018-08-22T09:27:57.976Z,4.50
2018-08-22T09:30:31.623Z,5.10
2018-08-22T09:33:07.217Z,4.47
2018-08-22T09:35:42.335Z,4.70
2018-08-22T09:38:21.499Z,4.50
2018-08-22T09:41:00.515Z,4.17
2018-08-22T09:43:32.153Z,3.60
2018-08-22T09:46:09.675Z,3.87
2018-08-22T09:48:42.215Z,4.33
2018-08-22T09:51:11.904Z,5.00
2018-08-22T09:53:41.731Z,4.37
2018-08-22T09:56:15.771Z,4.30
2018-08-22T09:59:04.015Z,4.33
2018-08-22T10:01:42.391Z,3.97
2018-08-22T10:04:20.023Z,3.73
2018-08-22T10:06:53.911Z,3.70
2018-08-22T10:09:28.511Z,4.20
2018-08-22T10:12:05.631Z,3.80
2018-08-22T10:14:59.755Z,3.90
2018-08-22T10:17:38.351Z,4.20
2018-08-22T10:20:17.699Z,3.50
2018-08-22T10:22:48.531Z,4.60
2018-08-22T10:25:20.120Z,5.13
2018-08-22T10:27:53.835Z,4.50
2018-08-22T10:30:24.612Z,4.17
2018-08-22T10:32:54.323Z,4.23
2018-08-22T10:35:23.976Z,4.00
2018-08-22T10:37:54.736Z,5.00
2018-08-22T10:40:24.516Z,4.23
2018-08-22T10:42:56.057Z,4.00
2018-08-22T10:45:29.341Z,4.57
2018-08-22T10:48:00.880Z,4.77
2018-08-22T10:51:00.481Z,4.67
2018-08-22T10:56:34.256Z,4.83
2018-08-22T10:59:20.253Z,4.13
2018-08-22T11:01:49.862Z,4.60
2018-08-22T11:04:20.516Z,4.50
2018-08-22T11:06:51.327Z,4.17
2018-08-22T11:09:20.859Z,4.33
2018-08-22T11:11:52.576Z,4.13
2018-08-22T11:14:23.198Z,3.80
2018-08-22T11:17:07.123Z,4.23
2018-08-22T11:19:36.763Z,4.90
2018-08-22T11:22:23.427Z,3.93
2018-08-22T11:25:12.223Z,3.93
2018-08-22T11:28:04.063Z,3.90
2018-08-22T11:30:50.787Z,3.83
2018-08-22T11:33:31.803Z,4.00
2018-08-22T11:36:04.411Z,4.57
2018-08-22T11:38:35.983Z,4.00
2018-08-22T11:41:06.733Z,5.30
2018-08-22T11:43:41.395Z,4.80
2018-08-22T11:46:12.991Z,5.03
2018-08-22T11:48:42.715Z,4.60
2018-08-22T11:51:14.591Z,4.13
2018-08-22T11:53:53.679Z,4.30
2018-08-22T11:56:23.235Z,4.70
2018-08-22T11:58:57.867Z,4.57
2018-08-22T12:01:28.507Z,4.90
2018-08-22T12:03:58.291Z,5.20
2018-08-22T12:06:29.175Z,6.00
2018-08-22T12:09:00.999Z,4.70
2018-08-22T12:11:36.355Z,4.80
2018-08-22T12:14:07.455Z,5.23
2018-08-22T12:16:38.359Z,3.73
2018-08-22T12:19:09.716Z,4.13
2018-08-22T12:21:44.072Z,4.77
2018-08-22T12:24:13.848Z,4.30
2018-08-22T12:26:48.111Z,3.80
2018-08-22T12:29:19.912Z,4.00
2018-08-22T12:31:49.804Z,3.70
2018-08-22T12:34:19.619Z,4.70
2018-08-22T12:36:50.504Z,4.47
2018-08-22T12:39:20.127Z,3.83
2018-08-22T12:42:10.291Z,3.70
2018-08-22T12:44:43.981Z,4.50
2018-08-22T12:47:13.836Z,4.27
2018-08-22T12:49:44.632Z,3.83
2018-08-22T12:52:15.184Z,4.80
2018-08-22T12:54:50.618Z,4.07
2018-08-22T12:57:20.545Z,4.63
2018-08-22T13:00:03.508Z,4.03
2018-08-22T13:02:33.588Z,3.67
2018-08-22T13:05:03.197Z,3.80
2018-08-22T13:07:33.955Z,4.30
2018-08-22T13:10:04.527Z,4.60
2018-08-22T13:12:38.672Z,4.20
2018-08-22T13:15:09.849Z,3.77
2018-08-22T13:17:45.111Z,3.50
2018-08-22T13:20:20.143Z,3.73
2018-08-22T13:22:53.879Z,3.40
2018-08-22T13:25:23.471Z,3.37
2018-08-22T13:27:53.231Z,3.73
2018-08-22T13:30:24.121Z,3.90
2018-08-22T13:32:54.859Z,4.10
2018-08-22T13:35:24.631Z,4.50
2018-08-22T13:37:56.471Z,4.30
2018-08-22T13:40:26.403Z,3.40
2018-08-22T13:43:08.627Z,3.80
2018-08-22T13:45:38.495Z,3.70
2018-08-22T13:48:12.687Z,3.83
2018-08-22T13:50:48.000Z,3.63
2018-08-22T13:53:19.820Z,3.87
2018-08-22T13:55:50.660Z,3.67
2018-08-22T13:58:31.543Z,4.00
2018-08-22T14:01:06.527Z,4.23
2018-08-22T14:03:38.207Z,3.97
2018-08-22T14:06:18.567Z,3.73
2018-08-22T14:09:01.117Z,4.43
2018-08-22T14:11:43.812Z,4.57
2018-08-22T14:14:19.051Z,4.60
2018-08-22T14:16:52.460Z,4.00
2018-08-22T14:19:25.640Z,3.57
2018-08-22T14:22:00.167Z,4.20
2018-08-22T14:24:36.627Z,3.73
2018-08-22T14:27:08.383Z,3.47
2018-08-22T14:29:45.223Z,3.83
2018-08-22T14:32:19.679Z,3.73
2018-08-22T14:34:50.223Z,4.03
2018-08-22T14:37:19.675Z,3.60
2018-08-22T14:39:50.124Z,3.47
2018-08-22T14:42:29.800Z,4.03
2018-08-22T14:45:06.259Z,4.70
2018-08-22T14:47:37.924Z,3.47
2018-08-22T14:50:08.148Z,3.47
2018-08-22T14:52:48.555Z,3.67
2018-08-22T14:55:19.288Z,4.37
2018-08-22T14:57:53.063Z,4.50
2018-08-22T15:00:39.036Z,6.27
2018-08-22T15:03:09.088Z,3.90
2018-08-22T15:05:54.683Z,4.80
2018-08-22T15:08:34.407Z,3.97
2018-08-22T15:11:09.155Z,4.40
2018-08-22T15:13:39.883Z,4.20
2018-08-22T15:16:11.409Z,3.80
2018-08-22T15:18:41.846Z,4.60
2018-08-22T15:21:11.530Z,4.70
2018-08-22T15:24:01.311Z,3.90
2018-08-22T15:26:43.154Z,4.70
2018-08-22T15:29:23.930Z,4.30
2018-08-22T15:31:53.826Z,3.57
2018-08-22T15:34:41.374Z,3.40
2018-08-22T15:37:11.242Z,3.70
2018-08-22T15:39:46.486Z,4.70
2018-08-22T15:42:19.606Z,4.27
2018-08-22T15:44:50.401Z,3.77
2018-08-22T15:47:22.092Z,4.20
2018-08-22T15:49:53.721Z,3.60
2018-08-22T15:52:23.579Z,3.63
2018-08-22T15:55:13.194Z,3.80
2018-08-22T15:58:01.667Z,3.70
2018-08-22T16:00:49.711Z,4.10
2018-08-22T16:03:29.602Z,3.80
2018-08-22T16:06:15.571Z,3.80
2018-08-22T16:08:48.777Z,4.47
2018-08-22T16:11:18.431Z,4.07
2018-08-22T16:14:09.459Z,4.47
2018-08-22T16:16:49.718Z,3.77
2018-08-22T16:19:19.294Z,5.03
2018-08-22T16:21:53.942Z,4.40
2018-08-22T16:24:28.699Z,4.70
2018-08-22T16:26:58.567Z,3.80
2018-08-22T16:29:42.862Z,5.20
2018-08-22T16:32:13.655Z,5.30
2018-08-22T16:34:44.503Z,4.50
2018-08-22T16:37:14.299Z,5.17
2018-08-22T16:39:56.574Z,4.70
2018-08-22T16:45:35.316Z,5.10
2018-08-22T16:48:19.894Z,5.70
2018-08-22T16:50:53.046Z,4.63
2018-08-22T16:53:26.083Z,4.93
2018-08-22T16:56:20.379Z,5.07
2018-08-22T16:58:56.410Z,7.83
2018-08-22T17:01:32.410Z,5.30
2018-08-22T17:04:07.794Z,5.30
2018-08-22T17:06:51.018Z,5.30
2018-08-22T17:09:20.658Z,4.57
2018-08-22T17:11:50.370Z,5.60
2018-08-22T17:14:21.919Z,5.03
2018-08-22T17:16:51.622Z,5.30
2018-08-22T17:19:46.914Z,5.20
2018-08-22T17:22:23.843Z,5.60
2018-08-22T17:25:00.422Z,5.13
2018-08-22T17:27:33.587Z,5.50
2018-08-22T17:30:08.610Z,5.50
2018-08-22T17:32:45.238Z,5.30
2018-08-22T17:35:18.738Z,5.70
2018-08-22T17:37:59.067Z,5.93
2018-08-22T17:40:28.850Z,5.97
2018-08-22T17:43:03.840Z,4.77
2018-08-22T17:45:47.470Z,5.60
2018-08-22T17:48:18.056Z,5.97
2018-08-22T17:50:59.574Z,5.30
2018-08-22T17:53:29.358Z,5.83
2018-08-22T17:56:11.275Z,5.90
2018-08-22T17:58:48.922Z,5.60
2018-08-22T18:01:25.522Z,5.70
2018-08-22T18:04:11.190Z,6.33
2018-08-22T18:09:49.114Z,6.57
2018-08-22T18:12:33.210Z,6.67
2018-08-22T18:15:03.862Z,5.80
2018-08-22T18:17:35.678Z,5.83
2018-08-22T18:20:17.618Z,6.20
2018-08-22T18:22:50.642Z,6.07
2018-08-22T18:25:25.750Z,5.37
2018-08-22T18:28:07.857Z,6.70
2018-08-22T18:30:49.122Z,5.90
2018-08-22T18:33:26.233Z,5.97
2018-08-22T18:36:02.997Z,6.27
2018-08-22T18:38:36.218Z,6.60
2018-08-22T18:41:11.678Z,6.70
2018-08-22T18:44:03.060Z,6.10
2018-08-22T18:46:32.886Z,6.93
2018-08-22T18:49:14.402Z,6.37
2018-08-22T18:51:50.382Z,7.67
2018-08-22T18:54:20.210Z,6.10
2018-08-22T18:56:51.902Z,6.80
2018-08-22T18:59:34.806Z,6.60
2018-08-22T19:02:11.386Z,7.60
2018-08-22T19:04:44.322Z,6.90
2018-08-22T19:07:18.214Z,6.57
2018-08-22T19:09:49.074Z,6.97
2018-08-22T19:12:20.398Z,6.97
2018-08-22T19:14:57.430Z,7.10
2018-08-22T19:17:28.976Z,7.77
2018-08-22T19:19:59.651Z,8.27
2018-08-22T19:22:34.082Z,8.07
2018-08-22T19:25:06.849Z,8.77
2018-08-22T19:27:38.718Z,7.40
2018-08-22T19:30:12.130Z,8.20
2018-08-22T19:32:42.955Z,8.53
2018-08-22T19:35:17.998Z,7.40
2018-08-22T19:38:07.406Z,9.20
2018-08-22T19:40:37.471Z,7.20
2018-08-22T19:43:08.014Z,9.40
2018-08-22T19:45:47.414Z,8.40
2018-08-22T19:48:16.922Z,8.10
2018-08-22T19:50:46.678Z,8.80
2018-08-22T19:53:17.494Z,8.00
2018-08-22T19:56:05.883Z,8.07
2018-08-22T19:58:35.758Z,7.63
2018-08-22T20:01:06.803Z,7.27
2018-08-22T20:03:36.706Z,6.53
2018-08-22T20:06:08.402Z,7.60
2018-08-22T20:08:38.950Z,6.83
2018-08-22T20:11:27.018Z,8.50
2018-08-22T20:13:59.453Z,8.33
2018-08-22T20:16:31.326Z,7.83
2018-08-22T20:19:04.420Z,7.40
2018-08-22T20:21:39.682Z,7.60
2018-08-22T20:24:12.230Z,7.47
2018-08-22T20:26:57.150Z,9.10
2018-08-22T20:29:33.738Z,7.77
2018-08-22T20:32:17.179Z,7.90
2018-08-22T20:34:48.070Z,7.40
2018-08-22T20:37:17.704Z,7.30
2018-08-22T20:39:56.270Z,7.50
2018-08-22T20:42:26.165Z,7.93
2018-08-22T20:44:57.972Z,6.90
2018-08-22T20:47:29.821Z,7.17
2018-08-22T20:50:05.338Z,7.47
2018-08-22T20:52:37.294Z,7.90
2018-08-22T20:55:10.447Z,7.37
2018-08-22T20:57:44.778Z,8.00
2018-08-22T21:00:16.969Z,8.13
2018-08-22T21:02:48.555Z,7.30
2018-08-22T21:05:18.058Z,8.10
2018-08-22T21:07:49.830Z,7.80
2018-08-22T21:10:24.979Z,8.43
2018-08-22T21:13:00.302Z,8.40
2018-08-22T21:15:35.614Z,8.70
2018-08-22T21:18:05.358Z,7.37
2018-08-22T21:20:38.834Z,7.37
2018-08-22T21:23:08.350Z,8.37
2018-08-22T21:25:39.093Z,8.00
2018-08-22T21:28:14.715Z,7.60
2018-08-22T21:30:51.937Z,7.73
2018-08-22T21:33:30.705Z,8.50
2018-08-22T21:36:00.585Z,8.10
2018-08-22T21:38:34.461Z,9.00
2018-08-22T21:41:05.205Z,8.30
2018-08-22T21:43:35.029Z,9.20
2018-08-22T21:46:04.934Z,12.13
2018-08-22T21:48:35.761Z,11.20
2018-08-22T21:51:07.585Z,11.60
2018-08-22T21:53:38.413Z,9.10
2018-08-22T21:56:15.126Z,8.30
2018-08-22T21:58:44.978Z,9.20
2018-08-22T22:01:16.857Z,9.70
2018-08-22T22:04:04.983Z,9.47
2018-08-22T22:06:38.657Z,9.60
2018-08-22T22:09:12.505Z,8.73
2018-08-22T22:11:44.676Z,8.97
2018-08-22T22:14:19.425Z,8.90
2018-08-22T22:16:50.289Z,8.37
2018-08-22T22:19:20.701Z,9.00
2018-08-22T22:21:52.532Z,9.57
2018-08-22T22:24:23.588Z,8.83
2018-08-22T22:26:53.412Z,9.30
2018-08-22T22:29:28.665Z,8.07
2018-08-22T22:31:58.457Z,8.87
2018-08-22T22:34:28.093Z,8.70
2018-08-22T22:36:59.814Z,7.77
2018-08-22T22:39:40.558Z,9.43
2018-08-22T22:42:17.006Z,8.00
2018-08-22T22:44:54.750Z,8.90
2018-08-22T22:47:33.818Z,9.17
2018-08-22T22:50:04.174Z,8.57
2018-08-22T22:52:38.729Z,9.13
2018-08-22T22:55:09.453Z,8.50
2018-08-22T22:57:44.790Z,8.73
2018-08-22T23:00:17.701Z,8.47
2018-08-22T23:02:53.613Z,8.70
2018-08-22T23:09:05.501Z,8.53
2018-08-22T23:11:36.301Z,8.33
2018-08-22T23:14:07.182Z,8.43
2018-08-22T23:16:42.081Z,8.83
2018-08-22T23:19:12.957Z,7.13
2018-08-22T23:21:48.397Z,7.90
2018-08-22T23:24:20.005Z,8.00
2018-08-22T23:26:51.813Z,8.33
2018-08-22T23:29:22.629Z,8.53
2018-08-22T23:31:59.828Z,8.57
2018-08-22T23:34:31.449Z,8.90
2018-08-22T23:37:02.160Z,9.33
2018-08-22T23:39:36.107Z,8.30
2018-08-22T23:42:05.869Z,9.43
2018-08-22T23:44:43.208Z,8.63
2018-08-22T23:47:12.965Z,8.73
2018-08-22T23:49:46.685Z,8.33
2018-08-22T23:52:16.385Z,9.50
2018-08-22T23:54:57.208Z,9.10
2018-08-22T23:57:26.870Z,7.93
2018-08-22T23:59:56.621Z,9.87
